createdAt,value
2022-11-15T00:00:26.791Z,29.48
2022-11-15T00:03:19.196Z,30.13
2022-11-15T00:06:05.545Z,38.00
2022-11-15T00:08:51.084Z,35.40
2022-11-15T00:11:36.559Z,34.80
2022-11-15T00:14:22.191Z,38.35
2022-11-15T00:17:08.597Z,35.67
2022-11-15T00:19:54.095Z,34.40
2022-11-15T00:22:39.853Z,37.08
2022-11-15T00:25:25.470Z,38.38
2022-11-15T00:28:11.434Z,40.25
2022-11-15T00:31:11.634Z,35.80
2022-11-15T00:33:57.025Z,38.75
2022-11-15T00:36:42.510Z,41.78
2022-11-15T00:39:28.046Z,40.90
2022-11-15T00:42:13.590Z,44.75
2022-11-15T00:44:59.060Z,47.22
2022-11-15T00:47:47.964Z,36.72
2022-11-15T00:50:33.490Z,45.90
2022-11-15T00:53:18.858Z,39.50
2022-11-15T00:56:04.671Z,44.50
2022-11-15T00:58:50.119Z,47.30
2022-11-15T01:01:35.669Z,42.70
2022-11-15T01:04:21.518Z,40.42
2022-11-15T01:07:06.689Z,36.65
2022-11-15T01:09:52.488Z,39.92
2022-11-15T01:12:37.789Z,39.92
2022-11-15T01:15:22.911Z,44.10
2022-11-15T01:18:08.687Z,41.25
2022-11-15T01:20:53.888Z,48.58
2022-11-15T01:23:39.804Z,41.38
2022-11-15T01:26:26.189Z,47.42
2022-11-15T01:29:11.808Z,38.70
2022-11-15T01:31:57.272Z,40.58
2022-11-15T01:34:42.690Z,37.92
2022-11-15T01:37:28.254Z,42.22
2022-11-15T01:40:13.970Z,42.38
2022-11-15T01:42:59.234Z,39.63
2022-11-15T01:45:51.355Z,40.65
2022-11-15T01:48:37.561Z,37.80
2022-11-15T01:51:26.999Z,41.78
2022-11-15T01:54:19.838Z,44.38
2022-11-15T01:57:12.358Z,43.88
2022-11-15T02:00:01.311Z,43.08
2022-11-15T02:02:46.634Z,38.63
2022-11-15T02:05:32.856Z,43.88
2022-11-15T02:08:20.936Z,45.00
2022-11-15T02:11:09.837Z,49.83
2022-11-15T02:13:58.346Z,43.03
2022-11-15T02:17:08.295Z,44.75
2022-11-15T02:20:18.319Z,45.03
2022-11-15T02:23:44.134Z,47.10
2022-11-15T02:27:25.756Z,40.83
2022-11-15T02:30:32.258Z,42.33
2022-11-15T02:33:37.975Z,45.55
2022-11-15T02:36:55.146Z,45.85
2022-11-15T02:39:46.662Z,43.10
2022-11-15T02:42:57.334Z,43.30
2022-11-15T02:45:55.051Z,39.63
2022-11-15T02:48:42.453Z,48.13
2022-11-15T02:51:27.794Z,38.88
2022-11-15T02:54:23.756Z,45.42
2022-11-15T02:57:17.187Z,41.15
2022-11-15T03:00:09.126Z,45.38
2022-11-15T03:03:30.214Z,37.83
2022-11-15T03:06:22.256Z,40.92
2022-11-15T03:09:37.358Z,35.53
2022-11-15T03:12:52.570Z,41.00
2022-11-15T03:15:44.351Z,39.35
2022-11-15T03:18:36.699Z,43.55
2022-11-15T03:21:24.986Z,40.08
2022-11-15T03:24:13.254Z,38.75
2022-11-15T03:27:02.466Z,41.05
2022-11-15T03:29:56.156Z,37.42
2022-11-15T03:32:49.947Z,44.55
2022-11-15T03:35:46.058Z,45.03
2022-11-15T03:38:35.935Z,37.95
2022-11-15T03:41:42.159Z,37.90
2022-11-15T03:44:51.873Z,41.33
2022-11-15T03:47:45.966Z,37.08
2022-11-15T03:50:32.492Z,35.60
2022-11-15T03:53:18.218Z,38.33
2022-11-15T03:56:03.821Z,37.30
2022-11-15T03:58:49.333Z,40.45
2022-11-15T04:01:34.703Z,38.97
2022-11-15T04:04:20.387Z,35.20
2022-11-15T04:07:06.640Z,38.35
2022-11-15T04:10:03.971Z,32.35
2022-11-15T04:12:49.106Z,35.30
2022-11-15T04:15:35.299Z,33.15
2022-11-15T04:18:20.685Z,34.58
2022-11-15T04:21:25.190Z,33.45
2022-11-15T04:24:13.259Z,31.63
2022-11-15T04:26:58.944Z,30.77
2022-11-15T04:29:44.199Z,32.72
2022-11-15T04:32:29.609Z,32.63
2022-11-15T04:35:15.158Z,30.23
2022-11-15T04:38:02.231Z,30.90
2022-11-15T04:40:47.848Z,35.58
2022-11-15T04:43:33.406Z,29.77
2022-11-15T04:46:19.282Z,28.27
2022-11-15T04:49:04.678Z,29.55
2022-11-15T04:51:50.510Z,27.27
2022-11-15T04:54:36.116Z,29.50
2022-11-15T04:57:21.589Z,30.65
2022-11-15T05:00:14.123Z,32.33
2022-11-15T05:03:18.087Z,28.25
2022-11-15T05:06:03.780Z,30.90
2022-11-15T05:08:49.203Z,25.95
2022-11-15T05:11:35.036Z,27.25
2022-11-15T05:14:20.437Z,25.92
2022-11-15T05:17:05.558Z,31.17
2022-11-15T05:19:52.837Z,26.60
2022-11-15T05:22:38.327Z,25.00
2022-11-15T05:25:24.532Z,26.60
2022-11-15T05:28:10.047Z,26.17
2022-11-15T05:31:09.446Z,28.85
2022-11-15T05:33:56.902Z,24.23
2022-11-15T05:36:45.585Z,28.17
2022-11-15T05:39:30.758Z,24.92
2022-11-15T05:42:17.384Z,28.75
2022-11-15T05:45:07.102Z,26.98
2022-11-15T05:47:55.114Z,22.70
2022-11-15T05:50:45.430Z,23.15
2022-11-15T05:53:31.898Z,27.08
2022-11-15T05:56:17.774Z,26.67
2022-11-15T05:59:04.119Z,21.67
2022-11-15T06:01:49.969Z,25.55
2022-11-15T06:04:35.313Z,23.83
2022-11-15T06:07:20.584Z,24.40
2022-11-15T06:10:06.847Z,24.70
2022-11-15T06:13:03.482Z,24.30
2022-11-15T06:15:49.178Z,24.38
2022-11-15T06:18:35.757Z,25.38
2022-11-15T06:21:21.759Z,24.92
2022-11-15T06:24:07.790Z,29.30
2022-11-15T06:26:53.282Z,24.40
2022-11-15T06:29:39.041Z,27.05
2022-11-15T06:32:24.188Z,26.52
2022-11-15T06:35:09.705Z,24.75
2022-11-15T06:37:55.472Z,28.25
2022-11-15T06:40:40.983Z,29.02
2022-11-15T06:43:26.594Z,24.40
2022-11-15T06:46:12.158Z,27.38
2022-11-15T06:48:57.539Z,26.60
2022-11-15T06:51:43.143Z,23.30
2022-11-15T06:54:28.555Z,26.38
2022-11-15T06:57:14.001Z,23.98
2022-11-15T06:59:59.463Z,23.85
2022-11-15T07:02:45.387Z,27.17
2022-11-15T07:05:31.297Z,27.17
2022-11-15T07:08:16.457Z,25.90
2022-11-15T07:11:06.498Z,24.00
2022-11-15T07:13:51.706Z,24.92
2022-11-15T07:16:38.540Z,22.35
2022-11-15T07:19:23.971Z,27.58
2022-11-15T07:22:09.423Z,27.83
2022-11-15T07:24:55.078Z,23.67
2022-11-15T07:27:40.813Z,26.75
2022-11-15T07:30:27.756Z,23.38
2022-11-15T07:33:13.325Z,23.35
2022-11-15T07:36:07.529Z,24.63
2022-11-15T07:38:53.382Z,19.95
2022-11-15T07:41:39.502Z,25.75
2022-11-15T07:44:26.270Z,22.23
2022-11-15T07:47:11.649Z,20.00
2022-11-15T07:49:57.002Z,21.27
2022-11-15T07:52:42.710Z,27.42
2022-11-15T07:55:30.746Z,22.95
2022-11-15T07:58:16.203Z,21.60
2022-11-15T08:01:11.067Z,21.10
2022-11-15T08:03:56.592Z,17.13
2022-11-15T08:06:42.089Z,20.98
2022-11-15T08:09:27.475Z,21.05
2022-11-15T08:12:13.108Z,21.73
2022-11-15T08:14:58.710Z,22.80
2022-11-15T08:17:44.155Z,21.73
2022-11-15T08:20:31.684Z,21.08
2022-11-15T08:23:17.160Z,19.63
2022-11-15T08:26:05.136Z,16.98
2022-11-15T08:28:50.646Z,20.02
2022-11-15T08:31:37.555Z,18.95
2022-11-15T08:34:23.302Z,18.30
2022-11-15T08:37:08.472Z,17.63
2022-11-15T08:39:54.018Z,19.15
2022-11-15T08:42:39.735Z,20.58
2022-11-15T08:45:25.206Z,16.15
2022-11-15T08:48:10.716Z,19.35
2022-11-15T08:50:57.724Z,17.52
2022-11-15T08:53:43.976Z,15.32
2022-11-15T08:56:29.523Z,17.40
2022-11-15T08:59:15.957Z,18.10
2022-11-15T09:02:01.295Z,15.45
2022-11-15T09:04:46.889Z,14.95
2022-11-15T09:07:32.766Z,15.52
2022-11-15T09:10:18.290Z,15.02
2022-11-15T09:13:03.979Z,14.85
2022-11-15T09:15:49.707Z,14.35
2022-11-15T09:18:35.942Z,11.80
2022-11-15T09:21:21.576Z,12.93
2022-11-15T09:24:07.544Z,12.80
2022-11-15T09:26:53.131Z,15.98
2022-11-15T09:29:38.438Z,13.32
2022-11-15T09:32:24.608Z,16.63
2022-11-15T09:35:10.119Z,15.32
2022-11-15T09:37:56.584Z,12.00
2022-11-15T09:40:42.455Z,15.30
2022-11-15T09:43:59.897Z,13.65
2022-11-15T09:47:20.283Z,14.30
2022-11-15T09:50:13.687Z,14.23
2022-11-15T09:52:45.243Z,12.05
2022-11-15T09:55:22.069Z,11.57
2022-11-15T09:57:59.904Z,13.25
2022-11-15T10:00:48.248Z,12.63
2022-11-15T10:03:31.527Z,13.52
2022-11-15T10:06:05.020Z,7.95
2022-11-15T10:09:06.929Z,9.75
2022-11-15T10:11:39.225Z,10.52
2022-11-15T10:14:16.635Z,10.93
2022-11-15T10:17:12.386Z,12.50
2022-11-15T10:20:18.530Z,8.93
2022-11-15T10:22:57.777Z,7.07
2022-11-15T10:25:31.016Z,8.00
2022-11-15T10:28:16.246Z,8.60
2022-11-15T10:30:55.472Z,9.25
2022-11-15T10:33:39.508Z,13.13
2022-11-15T10:36:21.030Z,8.88
2022-11-15T10:38:53.762Z,10.35
2022-11-15T10:41:31.675Z,10.35
2022-11-15T10:44:24.283Z,6.60
2022-11-15T10:46:57.386Z,9.43
2022-11-15T10:49:30.318Z,9.13
2022-11-15T10:52:02.170Z,8.70
2022-11-15T10:54:41.032Z,7.88
2022-11-15T10:57:19.450Z,7.88
2022-11-15T11:00:27.643Z,6.93
2022-11-15T11:02:57.415Z,5.57
2022-11-15T11:05:41.062Z,6.22
2022-11-15T11:08:11.961Z,7.93
2022-11-15T11:11:00.228Z,6.95
2022-11-15T11:13:31.859Z,6.97
2022-11-15T11:16:27.110Z,5.30
2022-11-15T11:19:24.633Z,3.55
2022-11-15T11:22:12.364Z,5.25
2022-11-15T11:24:59.646Z,4.80
2022-11-15T11:27:43.042Z,4.65
2022-11-15T11:30:13.265Z,5.47
2022-11-15T11:33:22.722Z,5.18
2022-11-15T11:36:50.674Z,4.18
2022-11-15T11:39:39.914Z,5.53
2022-11-15T11:42:35.240Z,2.72
2022-11-15T11:45:36.787Z,4.32
2022-11-15T11:48:14.874Z,6.32
2022-11-15T11:50:45.761Z,7.18
2022-11-15T11:53:40.433Z,4.70
2022-11-15T11:56:29.591Z,4.03
2022-11-15T11:59:11.442Z,4.25
2022-11-15T12:01:44.690Z,4.95
2022-11-15T12:04:37.083Z,5.13
2022-11-15T12:07:20.224Z,4.03
2022-11-15T12:09:59.329Z,4.15
2022-11-15T12:12:43.153Z,4.78
2022-11-15T12:15:09.881Z,6.57
2022-11-15T12:17:39.504Z,6.90
2022-11-15T12:20:24.510Z,3.17
2022-11-15T12:23:05.766Z,5.68
2022-11-15T12:26:00.720Z,4.22
2022-11-15T12:29:05.879Z,3.90
2022-11-15T12:31:42.889Z,5.57
2022-11-15T12:34:21.622Z,5.60
2022-11-15T12:36:51.370Z,7.68
2022-11-15T12:39:19.685Z,5.15
2022-11-15T12:42:06.340Z,7.10
2022-11-15T12:44:33.044Z,4.68
2022-11-15T12:47:25.146Z,4.53
2022-11-15T12:49:52.766Z,3.97
2022-11-15T12:52:20.722Z,6.68
2022-11-15T12:55:00.346Z,4.10
2022-11-15T12:57:34.617Z,5.13
2022-11-15T13:00:25.412Z,4.40
2022-11-15T13:03:24.455Z,3.03
2022-11-15T13:06:00.106Z,6.80
2022-11-15T13:08:41.937Z,5.32
2022-11-15T13:11:45.668Z,4.70
2022-11-15T13:15:25.195Z,6.15
2022-11-15T13:17:56.841Z,4.65
2022-11-15T13:20:32.197Z,7.50
2022-11-15T13:23:16.634Z,2.90
2022-11-15T13:26:14.186Z,4.07
2022-11-15T13:28:51.720Z,3.30
2022-11-15T13:31:38.541Z,3.88
2022-11-15T13:34:51.458Z,4.88
2022-11-15T13:37:21.775Z,2.83
2022-11-15T13:39:50.642Z,3.13
2022-11-15T13:42:21.139Z,3.90
2022-11-15T13:45:02.202Z,6.95
2022-11-15T13:47:32.469Z,6.00
2022-11-15T13:50:01.818Z,2.47
2022-11-15T13:52:37.960Z,12.65
2022-11-15T13:55:18.346Z,8.45
2022-11-15T13:58:07.156Z,5.10
2022-11-15T14:00:44.296Z,3.75
2022-11-15T14:03:20.066Z,5.75
2022-11-15T14:06:13.000Z,8.77
2022-11-15T14:08:41.880Z,6.18
2022-11-15T14:11:21.002Z,6.93
2022-11-15T14:14:09.400Z,4.00
2022-11-15T14:16:38.851Z,5.05
2022-11-15T14:19:10.385Z,6.72
2022-11-15T14:21:37.996Z,5.07
2022-11-15T14:24:20.846Z,3.88
2022-11-15T14:26:49.403Z,4.95
2022-11-15T14:29:30.676Z,2.72
2022-11-15T14:32:22.553Z,5.78
2022-11-15T14:35:03.545Z,4.90
2022-11-15T14:37:36.402Z,3.95
2022-11-15T14:40:06.814Z,4.18
2022-11-15T14:42:33.725Z,6.63
2022-11-15T14:45:00.662Z,3.78
2022-11-15T14:47:27.517Z,6.57
2022-11-15T14:49:54.233Z,4.50
2022-11-15T14:52:35.209Z,5.78
2022-11-15T14:55:11.134Z,5.10
2022-11-15T14:57:37.894Z,4.40
2022-11-15T15:00:06.478Z,5.28
2022-11-15T15:02:41.506Z,6.18
2022-11-15T15:05:22.375Z,4.55
2022-11-15T15:07:50.143Z,4.53
2022-11-15T15:10:39.087Z,7.15
2022-11-15T15:13:06.706Z,7.43
2022-11-15T15:15:38.587Z,4.50
2022-11-15T15:18:09.247Z,4.65
2022-11-15T15:20:39.973Z,3.25
2022-11-15T15:23:16.748Z,7.72
2022-11-15T15:25:44.623Z,5.78
2022-11-15T15:28:11.426Z,5.90
2022-11-15T15:30:38.287Z,3.30
2022-11-15T15:33:05.162Z,9.00
2022-11-15T15:35:35.095Z,4.60
2022-11-15T15:38:02.653Z,4.95
2022-11-15T15:40:33.534Z,3.50
2022-11-15T15:43:00.864Z,5.60
2022-11-15T15:45:28.937Z,3.35
2022-11-15T15:47:56.245Z,4.53
2022-11-15T15:50:30.024Z,2.85
2022-11-15T15:53:00.174Z,7.30
2022-11-15T15:55:27.811Z,2.65
2022-11-15T15:57:55.673Z,4.35
2022-11-15T16:00:25.578Z,4.68
2022-11-15T16:02:54.030Z,3.95
2022-11-15T16:05:22.383Z,3.38
2022-11-15T16:07:49.630Z,4.78
2022-11-15T16:10:37.814Z,4.10
2022-11-15T16:13:04.895Z,7.68
2022-11-15T16:15:32.799Z,3.50
2022-11-15T16:18:01.597Z,4.80
2022-11-15T16:20:49.952Z,2.00
2022-11-15T16:23:22.379Z,2.17
2022-11-15T16:25:58.380Z,5.53
2022-11-15T16:28:32.230Z,3.42
2022-11-15T16:31:20.621Z,2.63
2022-11-15T16:33:47.685Z,4.65
2022-11-15T16:36:30.343Z,3.78
2022-11-15T16:38:58.062Z,4.45
2022-11-15T16:41:24.995Z,4.93
2022-11-15T16:43:52.216Z,5.70
2022-11-15T16:46:25.167Z,3.05
2022-11-15T16:48:54.151Z,5.65
2022-11-15T16:51:21.619Z,10.65
2022-11-15T16:53:51.220Z,5.18
2022-11-15T16:56:30.520Z,4.18
2022-11-15T16:58:59.767Z,4.65
2022-11-15T17:01:33.153Z,7.55
2022-11-15T17:04:12.297Z,5.70
2022-11-15T17:06:41.388Z,4.45
2022-11-15T17:09:25.793Z,3.60
2022-11-15T17:11:53.245Z,5.15
2022-11-15T17:14:20.174Z,2.88
2022-11-15T17:16:46.931Z,3.85
2022-11-15T17:19:17.463Z,4.50
2022-11-15T17:21:45.549Z,3.88
2022-11-15T17:24:12.962Z,3.47
2022-11-15T17:26:41.106Z,4.93
2022-11-15T17:29:08.261Z,3.58
2022-11-15T17:31:36.739Z,4.28
2022-11-15T17:34:06.014Z,4.68
2022-11-15T17:36:34.772Z,4.38
2022-11-15T17:39:01.972Z,5.75
2022-11-15T17:41:29.987Z,5.82
2022-11-15T17:43:59.640Z,4.25
2022-11-15T17:46:28.271Z,3.92
2022-11-15T17:48:57.034Z,6.38
2022-11-15T17:51:24.650Z,6.68
2022-11-15T17:53:52.858Z,5.55
2022-11-15T17:56:22.537Z,7.53
2022-11-15T17:58:52.439Z,6.03
2022-11-15T18:01:27.760Z,5.63
2022-11-15T18:03:56.862Z,3.75
2022-11-15T18:06:25.167Z,5.70
2022-11-15T18:08:55.949Z,4.18
2022-11-15T18:11:33.440Z,5.57
2022-11-15T18:14:05.669Z,5.28
2022-11-15T18:16:35.914Z,6.00
2022-11-15T18:19:08.874Z,5.00
2022-11-15T18:21:55.872Z,6.45
2022-11-15T18:24:31.458Z,7.30
2022-11-15T18:27:00.156Z,5.82
2022-11-15T18:29:27.693Z,7.15
2022-11-15T18:31:55.728Z,4.88
2022-11-15T18:34:33.329Z,5.75
2022-11-15T18:37:02.733Z,5.38
2022-11-15T18:39:30.295Z,4.53
2022-11-15T18:41:57.279Z,6.22
2022-11-15T18:44:24.060Z,4.75
2022-11-15T18:46:51.020Z,9.05
2022-11-15T18:49:19.618Z,5.88
2022-11-15T18:51:47.419Z,5.60
2022-11-15T18:54:16.875Z,5.05
2022-11-15T18:56:45.534Z,7.55
2022-11-15T18:59:13.663Z,5.68
2022-11-15T19:01:47.040Z,6.20
2022-11-15T19:04:19.777Z,5.30
2022-11-15T19:06:49.395Z,7.57
2022-11-15T19:09:19.238Z,4.57
2022-11-15T19:11:48.525Z,5.53
2022-11-15T19:14:18.428Z,5.10
2022-11-15T19:16:54.955Z,6.05
2022-11-15T19:19:25.760Z,6.45
2022-11-15T19:21:53.238Z,6.97
2022-11-15T19:24:20.490Z,6.60
2022-11-15T19:26:47.390Z,7.97
2022-11-15T19:29:18.204Z,6.03
2022-11-15T19:31:45.959Z,6.82
2022-11-15T19:34:12.927Z,6.03
2022-11-15T19:36:43.159Z,8.20
2022-11-15T19:39:17.877Z,6.05
2022-11-15T19:41:45.317Z,9.20
2022-11-15T19:44:13.672Z,7.05
2022-11-15T19:46:41.525Z,6.75
2022-11-15T19:49:10.624Z,7.18
2022-11-15T19:51:39.190Z,5.95
2022-11-15T19:54:08.594Z,6.57
2022-11-15T19:56:36.572Z,6.47
2022-11-15T19:59:04.883Z,6.78
2022-11-15T20:01:39.124Z,5.88
2022-11-15T20:04:07.987Z,7.07
2022-11-15T20:06:39.295Z,6.75
2022-11-15T20:09:06.452Z,6.93
2022-11-15T20:11:34.232Z,7.70
2022-11-15T20:14:06.227Z,7.75
2022-11-15T20:16:33.486Z,5.90
2022-11-15T20:19:00.343Z,7.50
2022-11-15T20:21:27.166Z,8.93
2022-11-15T20:23:55.147Z,9.52
2022-11-15T20:26:22.280Z,9.75
2022-11-15T20:28:49.515Z,6.97
2022-11-15T20:31:17.584Z,7.00
2022-11-15T20:33:45.287Z,6.82
2022-11-15T20:36:15.393Z,8.10
2022-11-15T20:38:43.496Z,6.20
2022-11-15T20:41:12.082Z,8.05
2022-11-15T20:43:41.561Z,10.63
2022-11-15T20:46:08.847Z,7.20
2022-11-15T20:48:36.466Z,7.65
2022-11-15T20:51:19.082Z,8.55
2022-11-15T20:53:46.948Z,8.70
2022-11-15T20:56:18.705Z,10.82
2022-11-15T20:58:46.082Z,11.48
2022-11-15T21:01:16.171Z,9.57
2022-11-15T21:03:43.487Z,7.93
2022-11-15T21:06:11.619Z,9.93
2022-11-15T21:08:57.462Z,9.23
2022-11-15T21:11:43.370Z,10.30
2022-11-15T21:14:10.452Z,7.97
2022-11-15T21:16:38.814Z,8.75
2022-11-15T21:19:06.710Z,6.97
2022-11-15T21:21:35.605Z,9.25
2022-11-15T21:24:08.342Z,8.70
2022-11-15T21:26:36.605Z,8.30
2022-11-15T21:29:03.726Z,8.38
2022-11-15T21:31:31.847Z,10.02
2022-11-15T21:34:02.538Z,9.57
2022-11-15T21:36:30.023Z,9.27
2022-11-15T21:38:56.801Z,8.75
2022-11-15T21:41:23.598Z,8.98
2022-11-15T21:43:50.321Z,8.73
2022-11-15T21:46:17.477Z,10.80
2022-11-15T21:48:44.236Z,9.93
2022-11-15T21:51:13.164Z,8.57
2022-11-15T21:53:40.075Z,10.93
2022-11-15T21:56:08.047Z,10.30
2022-11-15T21:58:35.803Z,9.30
2022-11-15T22:01:21.380Z,14.02
2022-11-15T22:03:48.498Z,11.63
2022-11-15T22:06:18.176Z,10.18
2022-11-15T22:08:46.294Z,9.85
2022-11-15T22:11:14.419Z,9.32
2022-11-15T22:13:41.427Z,9.25
2022-11-15T22:16:09.506Z,9.20
2022-11-15T22:18:37.503Z,10.20
2022-11-15T22:21:10.076Z,11.52
2022-11-15T22:23:37.337Z,11.25
2022-11-15T22:26:05.339Z,11.60
2022-11-15T22:28:32.532Z,10.75
2022-11-15T22:31:00.636Z,12.80
2022-11-15T22:33:30.707Z,12.48
2022-11-15T22:35:58.137Z,9.32
2022-11-15T22:38:25.872Z,11.32
2022-11-15T22:40:53.000Z,10.07
2022-11-15T22:43:23.386Z,9.80
2022-11-15T22:45:58.579Z,9.90
2022-11-15T22:48:33.740Z,10.65
2022-11-15T22:51:01.763Z,9.98
2022-11-15T22:53:29.735Z,11.23
2022-11-15T22:56:02.627Z,9.50
2022-11-15T22:58:32.334Z,8.95
2022-11-15T23:01:03.378Z,9.35
2022-11-15T23:03:31.743Z,10.20
2022-11-15T23:06:06.893Z,10.55
2022-11-15T23:08:34.448Z,10.80
2022-11-15T23:11:22.691Z,10.00
2022-11-15T23:13:52.110Z,11.90
2022-11-15T23:16:25.403Z,10.55
2022-11-15T23:18:58.579Z,11.05
2022-11-15T23:21:56.318Z,10.52
2022-11-15T23:24:24.170Z,10.38
2022-11-15T23:26:56.603Z,9.50
2022-11-15T23:29:25.622Z,10.57
2022-11-15T23:32:13.155Z,8.98
2022-11-15T23:34:45.916Z,9.65
2022-11-15T23:37:15.874Z,11.82
2022-11-15T23:39:42.608Z,10.50
2022-11-15T23:42:19.282Z,9.45
2022-11-15T23:44:46.641Z,10.07
2022-11-15T23:47:13.367Z,10.80
2022-11-15T23:49:40.099Z,10.10
2022-11-15T23:52:06.853Z,10.45
2022-11-15T23:54:33.574Z,11.93
2022-11-15T23:57:00.454Z,10.43
2022-11-15T23:59:27.291Z,11.27
